createdAt,value
2023-01-22T00:01:03.554Z,36.47
2023-01-22T00:03:32.017Z,35.77
2023-01-22T00:06:00.741Z,32.50
2023-01-22T00:08:29.440Z,35.37
2023-01-22T00:10:59.245Z,35.97
2023-01-22T00:13:28.479Z,34.33
2023-01-22T00:15:59.030Z,38.50
2023-01-22T00:18:27.606Z,38.33
2023-01-22T00:20:56.548Z,37.17
2023-01-22T00:23:25.589Z,38.70
2023-01-22T00:26:03.476Z,35.87
2023-01-22T00:28:31.940Z,33.83
2023-01-22T00:31:00.604Z,34.07
2023-01-22T00:33:29.211Z,35.67
2023-01-22T00:35:57.655Z,33.40
2023-01-22T00:38:26.060Z,30.80
2023-01-22T00:40:54.490Z,32.03
2023-01-22T00:43:24.343Z,33.43
2023-01-22T00:45:52.769Z,32.67
2023-01-22T00:48:21.209Z,34.63
2023-01-22T00:50:50.285Z,33.73
2023-01-22T00:53:18.784Z,32.87
2023-01-22T00:55:52.886Z,35.03
2023-01-22T00:58:21.634Z,33.70
2023-01-22T01:00:51.753Z,31.70
2023-01-22T01:03:30.551Z,36.63
2023-01-22T01:06:00.250Z,34.10
2023-01-22T01:08:29.418Z,36.20
2023-01-22T01:10:58.107Z,33.63
2023-01-22T01:13:26.688Z,30.77
2023-01-22T01:16:02.520Z,32.40
2023-01-22T01:18:31.079Z,32.73
2023-01-22T01:21:00.023Z,30.50
2023-01-22T01:23:29.334Z,31.10
2023-01-22T01:25:57.771Z,33.37
2023-01-22T01:28:26.244Z,33.17
2023-01-22T01:30:54.804Z,33.67
2023-01-22T01:33:24.682Z,31.13
2023-01-22T01:36:00.183Z,33.40
2023-01-22T01:38:28.633Z,33.87
2023-01-22T01:40:57.125Z,34.10
2023-01-22T01:43:25.845Z,32.67
2023-01-22T01:45:54.457Z,30.50
2023-01-22T01:48:28.569Z,32.13
2023-01-22T01:51:00.265Z,31.83
2023-01-22T01:53:28.889Z,29.33
2023-01-22T01:55:57.872Z,30.33
2023-01-22T01:58:27.221Z,30.00
2023-01-22T02:00:57.080Z,30.77
2023-01-22T02:03:27.453Z,27.47
2023-01-22T02:05:55.907Z,33.33
2023-01-22T02:08:24.356Z,31.13
2023-01-22T02:10:53.246Z,29.93
2023-01-22T02:13:24.487Z,28.63
2023-01-22T02:15:52.980Z,31.30
2023-01-22T02:18:21.592Z,28.10
2023-01-22T02:23:22.095Z,29.97
2023-01-22T02:25:50.559Z,27.43
2023-01-22T02:28:19.027Z,29.70
2023-01-22T02:30:47.775Z,27.53
2023-01-22T02:33:16.512Z,28.47
2023-01-22T02:35:45.039Z,29.17
2023-01-22T02:38:14.221Z,32.23
2023-01-22T02:40:49.375Z,28.57
2023-01-22T02:43:17.991Z,27.27
2023-01-22T02:45:46.420Z,29.20
2023-01-22T02:48:14.925Z,26.37
2023-01-22T02:50:45.068Z,26.83
2023-01-22T02:53:13.846Z,26.83
2023-01-22T02:55:44.874Z,29.27
2023-01-22T02:58:14.718Z,26.33
2023-01-22T03:03:15.693Z,28.37
2023-01-22T03:05:50.699Z,28.53
2023-01-22T03:08:19.729Z,24.53
2023-01-22T03:10:48.473Z,25.00
2023-01-22T03:13:34.612Z,25.50
2023-01-22T03:16:23.344Z,24.00
2023-01-22T03:19:10.986Z,25.97
2023-01-22T03:21:43.925Z,26.57
2023-01-22T03:24:12.370Z,22.73
2023-01-22T03:26:40.826Z,22.60
2023-01-22T03:29:09.261Z,23.63
2023-01-22T03:31:37.784Z,24.57
2023-01-22T03:34:07.675Z,23.97
2023-01-22T03:36:36.098Z,22.90
2023-01-22T03:39:04.550Z,21.03
2023-01-22T03:41:32.956Z,24.97
2023-01-22T03:44:03.502Z,24.93
2023-01-22T03:46:34.689Z,22.77
2023-01-22T03:49:03.138Z,21.73
2023-01-22T03:51:32.911Z,21.83
2023-01-22T03:54:01.647Z,23.90
2023-01-22T03:56:30.121Z,20.23
2023-01-22T03:58:58.527Z,22.93
2023-01-22T04:01:27.704Z,21.40
2023-01-22T04:03:56.348Z,22.07
2023-01-22T04:06:25.108Z,22.00
2023-01-22T04:08:55.661Z,24.03
2023-01-22T04:11:24.646Z,22.73
2023-01-22T04:13:53.119Z,24.07
2023-01-22T04:16:21.572Z,22.17
2023-01-22T04:18:50.062Z,23.13
2023-01-22T04:21:18.500Z,19.93
2023-01-22T04:23:46.930Z,22.63
2023-01-22T04:26:16.706Z,22.13
2023-01-22T04:28:45.147Z,25.57
2023-01-22T04:31:13.662Z,25.97
2023-01-22T04:33:42.360Z,23.50
2023-01-22T04:36:11.618Z,23.10
2023-01-22T04:38:40.043Z,23.90
2023-01-22T04:41:08.608Z,27.40
2023-01-22T04:43:38.417Z,22.80
2023-01-22T04:46:07.037Z,22.70
2023-01-22T04:48:35.599Z,25.27
2023-01-22T04:51:04.062Z,22.90
2023-01-22T04:53:32.495Z,22.67
2023-01-22T04:56:00.969Z,26.70
2023-01-22T04:58:29.382Z,21.13
2023-01-22T05:00:59.332Z,24.87
2023-01-22T05:03:27.768Z,25.40
2023-01-22T05:05:56.214Z,23.37
2023-01-22T05:08:24.606Z,25.60
2023-01-22T05:10:53.029Z,24.67
2023-01-22T05:13:21.457Z,27.10
2023-01-22T05:15:49.926Z,23.50
2023-01-22T05:18:19.754Z,23.33
2023-01-22T05:20:48.213Z,26.30
2023-01-22T05:23:16.661Z,25.33
2023-01-22T05:25:49.206Z,23.00
2023-01-22T05:28:17.639Z,24.70
2023-01-22T05:30:46.176Z,23.47
2023-01-22T05:33:14.660Z,21.43
2023-01-22T05:35:44.477Z,20.33
2023-01-22T05:38:12.918Z,24.87
2023-01-22T05:40:41.375Z,22.70
2023-01-22T05:43:09.779Z,23.10
2023-01-22T05:45:38.214Z,25.37
2023-01-22T05:48:06.764Z,22.27
2023-01-22T05:50:35.241Z,23.23
2023-01-22T05:53:05.326Z,22.80
2023-01-22T05:55:33.961Z,24.37
2023-01-22T05:58:03.810Z,21.93
2023-01-22T06:00:33.866Z,21.60
2023-01-22T06:03:02.762Z,23.90
2023-01-22T06:05:31.202Z,23.87
2023-01-22T06:07:59.963Z,23.57
2023-01-22T06:10:29.842Z,23.93
2023-01-22T06:12:58.245Z,21.57
2023-01-22T06:15:26.710Z,19.13
2023-01-22T06:17:55.134Z,20.87
2023-01-22T06:20:23.582Z,21.47
2023-01-22T06:22:52.810Z,25.00
2023-01-22T06:25:21.270Z,21.33
2023-01-22T06:27:51.039Z,19.13
2023-01-22T06:30:19.906Z,19.77
2023-01-22T06:32:48.462Z,19.13
2023-01-22T06:35:17.009Z,19.17
2023-01-22T06:37:45.429Z,20.77
2023-01-22T06:40:14.154Z,22.67
2023-01-22T06:42:42.855Z,20.80
2023-01-22T06:45:13.162Z,22.13
2023-01-22T06:47:44.938Z,18.70
2023-01-22T06:50:13.439Z,18.97
2023-01-22T06:52:41.853Z,20.17
2023-01-22T06:55:10.796Z,19.77
2023-01-22T06:57:39.211Z,22.57
2023-01-22T07:00:08.419Z,18.97
2023-01-22T07:02:38.268Z,19.57
2023-01-22T07:05:06.909Z,18.73
2023-01-22T07:07:35.346Z,21.37
2023-01-22T07:10:03.777Z,16.23
2023-01-22T07:12:32.236Z,19.07
2023-01-22T07:15:00.689Z,19.83
2023-01-22T07:17:29.319Z,18.43
2023-01-22T07:19:59.093Z,19.57
2023-01-22T07:22:27.516Z,17.73
2023-01-22T07:24:55.983Z,18.87
2023-01-22T07:27:24.431Z,19.50
2023-01-22T07:29:52.841Z,17.53
2023-01-22T07:32:21.412Z,17.57
2023-01-22T07:34:49.919Z,19.10
2023-01-22T07:37:19.737Z,18.23
2023-01-22T07:39:48.245Z,18.47
2023-01-22T07:42:16.697Z,20.57
2023-01-22T07:44:45.188Z,18.30
2023-01-22T07:47:13.623Z,18.27
2023-01-22T07:49:42.046Z,18.43
2023-01-22T07:52:10.487Z,18.47
2023-01-22T07:54:40.266Z,20.73
2023-01-22T07:57:11.216Z,18.50
2023-01-22T07:59:39.634Z,18.23
2023-01-22T08:02:08.189Z,18.10
2023-01-22T08:04:36.653Z,17.87
2023-01-22T08:07:05.099Z,18.93
2023-01-22T08:09:33.512Z,17.93
2023-01-22T08:12:03.391Z,18.80
2023-01-22T08:14:31.814Z,17.80
2023-01-22T08:17:00.252Z,18.13
2023-01-22T08:19:29.636Z,18.87
2023-01-22T08:21:58.453Z,18.27
2023-01-22T08:24:26.896Z,16.50
2023-01-22T08:26:56.226Z,18.23
2023-01-22T08:29:26.008Z,16.97
2023-01-22T08:31:54.541Z,16.77
2023-01-22T08:34:23.494Z,17.63
2023-01-22T08:36:52.018Z,18.03
2023-01-22T08:39:20.443Z,17.83
2023-01-22T08:41:48.891Z,19.07
2023-01-22T08:44:17.410Z,15.20
2023-01-22T08:46:47.268Z,18.50
2023-01-22T08:49:15.689Z,17.90
2023-01-22T08:54:24.357Z,19.47
2023-01-22T08:56:52.801Z,15.57
2023-01-22T08:59:21.264Z,18.73
2023-01-22T09:01:49.869Z,16.20
2023-01-22T09:04:19.726Z,18.13
2023-01-22T09:06:48.133Z,17.70
2023-01-22T09:09:16.590Z,16.47
2023-01-22T09:14:04.034Z,19.63
2023-01-22T09:16:34.316Z,16.83
2023-01-22T09:19:02.793Z,17.43
2023-01-22T09:21:31.207Z,18.63
2023-01-22T09:23:59.650Z,17.20
2023-01-22T09:26:28.103Z,20.73
2023-01-22T09:28:58.112Z,17.20
2023-01-22T09:31:27.907Z,19.33
2023-01-22T09:33:56.457Z,18.17
2023-01-22T09:36:24.874Z,21.03
2023-01-22T09:38:53.406Z,16.07
2023-01-22T09:41:24.096Z,16.03
2023-01-22T09:43:54.030Z,16.43
2023-01-22T09:46:24.862Z,18.73
2023-01-22T09:48:56.011Z,19.63
2023-01-22T09:51:25.314Z,14.73
2023-01-22T09:53:56.365Z,16.63
2023-01-22T09:56:28.063Z,19.03
2023-01-22T09:58:57.316Z,19.97
2023-01-22T10:01:26.482Z,20.40
2023-01-22T10:03:59.079Z,17.43
2023-01-22T10:06:29.942Z,19.70
2023-01-22T10:09:02.439Z,16.77
2023-01-22T10:11:31.066Z,16.40
2023-01-22T10:14:00.738Z,17.90
2023-01-22T10:16:29.225Z,17.83
2023-01-22T10:19:01.946Z,17.67
2023-01-22T10:21:31.373Z,17.03
2023-01-22T10:24:00.233Z,20.00
2023-01-22T10:26:34.015Z,17.67
2023-01-22T10:29:06.051Z,19.63
2023-01-22T10:31:35.577Z,19.20
2023-01-22T10:34:06.657Z,18.27
2023-01-22T10:36:35.069Z,18.77
2023-01-22T10:39:12.278Z,17.57
2023-01-22T10:41:40.958Z,18.20
2023-01-22T10:44:10.218Z,20.37
2023-01-22T10:46:38.674Z,21.30
2023-01-22T10:49:08.515Z,18.40
2023-01-22T10:51:38.519Z,18.80
2023-01-22T10:54:15.962Z,17.53
2023-01-22T10:56:44.382Z,17.07
2023-01-22T10:59:18.890Z,18.63
2023-01-22T11:01:49.386Z,19.07
2023-01-22T11:04:23.526Z,19.17
2023-01-22T11:06:52.904Z,20.80
2023-01-22T11:09:24.772Z,15.80
2023-01-22T11:11:54.921Z,20.30
2023-01-22T11:14:25.317Z,17.60
2023-01-22T11:16:55.430Z,17.00
2023-01-22T11:19:36.567Z,17.87
2023-01-22T11:22:08.206Z,18.93
2023-01-22T11:24:38.697Z,19.33
2023-01-22T11:27:14.489Z,18.57
2023-01-22T11:29:57.765Z,19.50
2023-01-22T11:32:34.448Z,18.10
2023-01-22T11:35:07.997Z,16.40
2023-01-22T11:37:43.276Z,20.30
2023-01-22T11:40:26.526Z,19.87
2023-01-22T11:43:18.846Z,21.40
2023-01-22T11:45:54.489Z,18.57
2023-01-22T11:48:41.183Z,21.57
2023-01-22T11:51:14.511Z,19.97
2023-01-22T11:53:57.468Z,19.93
2023-01-22T11:56:32.648Z,21.73
2023-01-22T11:59:04.785Z,19.27
2023-01-22T12:01:41.358Z,22.73
2023-01-22T12:04:27.443Z,24.37
2023-01-22T12:07:04.140Z,24.13
2023-01-22T12:09:36.763Z,23.33
2023-01-22T12:13:45.252Z,20.80
2023-01-22T12:16:17.075Z,22.37
2023-01-22T12:18:59.722Z,24.40
2023-01-22T12:21:34.391Z,25.13
2023-01-22T12:24:06.485Z,21.87
2023-01-22T12:26:36.415Z,23.77
2023-01-22T12:29:09.639Z,23.10
2023-01-22T12:31:40.585Z,28.27
2023-01-22T12:34:12.880Z,23.17
2023-01-22T12:36:41.907Z,24.00
2023-01-22T12:39:17.580Z,26.40
2023-01-22T12:41:49.046Z,21.93
2023-01-22T12:44:24.330Z,23.37
2023-01-22T12:46:58.549Z,23.20
2023-01-22T12:49:28.041Z,23.03
2023-01-22T12:51:59.856Z,28.23
2023-01-22T12:54:33.982Z,24.47
2023-01-22T12:57:13.529Z,24.67
2023-01-22T12:59:48.814Z,24.03
2023-01-22T13:02:26.038Z,22.83
2023-01-22T13:04:54.980Z,44.67
2023-01-22T13:07:24.475Z,24.63
2023-01-22T13:10:02.701Z,24.03
2023-01-22T13:12:38.451Z,23.47
2023-01-22T13:15:17.331Z,24.33
2023-01-22T13:17:47.453Z,23.27
2023-01-22T13:20:19.610Z,22.97
2023-01-22T13:22:48.495Z,24.83
2023-01-22T13:25:24.940Z,25.67
2023-01-22T13:27:53.699Z,23.03
2023-01-22T13:30:27.043Z,23.10
2023-01-22T13:33:08.662Z,25.67
2023-01-22T13:35:38.174Z,26.63
2023-01-22T13:38:06.896Z,26.87
2023-01-22T13:40:50.543Z,24.80
2023-01-22T13:43:20.864Z,25.97
2023-01-22T13:45:51.532Z,26.63
2023-01-22T13:48:21.977Z,26.63
2023-01-22T13:50:55.925Z,26.80
2023-01-22T13:53:26.484Z,26.83
2023-01-22T13:55:55.698Z,27.13
2023-01-22T13:58:47.909Z,27.80
2023-01-22T14:01:30.423Z,23.73
2023-01-22T14:04:02.618Z,25.50
2023-01-22T14:06:31.394Z,24.20
2023-01-22T14:09:00.153Z,22.80
2023-01-22T14:11:38.990Z,24.33
2023-01-22T14:14:16.494Z,24.97
2023-01-22T14:16:46.832Z,24.83
2023-01-22T14:19:15.376Z,23.33
2023-01-22T14:21:43.931Z,25.07
2023-01-22T14:24:12.479Z,26.97
2023-01-22T14:26:40.918Z,22.47
2023-01-22T14:29:10.087Z,23.90
2023-01-22T14:31:38.528Z,25.70
2023-01-22T14:34:08.401Z,23.47
2023-01-22T14:36:36.820Z,22.17
2023-01-22T14:39:06.823Z,24.93
2023-01-22T14:41:35.384Z,22.70
2023-01-22T14:44:04.256Z,24.43
2023-01-22T14:46:32.786Z,22.67
2023-01-22T14:49:01.950Z,22.13
2023-01-22T14:51:31.799Z,25.57
2023-01-22T14:54:00.297Z,23.03
2023-01-22T14:56:28.771Z,26.17
2023-01-22T14:58:57.203Z,23.27
2023-01-22T15:01:25.716Z,23.53
2023-01-22T15:03:54.267Z,21.27
2023-01-22T15:06:22.735Z,21.50
2023-01-22T15:08:52.699Z,23.60
2023-01-22T15:11:21.107Z,21.93
2023-01-22T15:13:52.668Z,28.07
2023-01-22T15:16:21.571Z,22.30
2023-01-22T15:18:50.011Z,23.67
2023-01-22T15:21:18.412Z,28.97
2023-01-22T15:23:46.874Z,22.27
2023-01-22T15:26:25.098Z,22.57
2023-01-22T15:28:53.529Z,23.30
2023-01-22T15:31:25.031Z,22.43
2023-01-22T15:33:53.532Z,23.97
2023-01-22T15:36:21.985Z,24.93
2023-01-22T15:38:50.439Z,22.37
2023-01-22T15:41:20.428Z,25.50
2023-01-22T15:43:51.768Z,27.20
2023-01-22T15:46:20.944Z,26.83
2023-01-22T15:48:49.484Z,25.80
2023-01-22T15:51:18.157Z,27.70
2023-01-22T15:53:50.792Z,22.47
2023-01-22T15:56:19.230Z,24.00
2023-01-22T15:58:48.781Z,24.90
2023-01-22T16:01:18.744Z,26.73
2023-01-22T16:03:47.439Z,26.03
2023-01-22T16:06:16.905Z,32.43
2023-01-22T16:08:46.021Z,23.63
2023-01-22T16:11:14.807Z,26.70
2023-01-22T16:13:43.870Z,26.40
2023-01-22T16:16:16.203Z,28.23
2023-01-22T16:18:46.325Z,29.70
2023-01-22T16:21:15.091Z,29.73
2023-01-22T16:23:44.370Z,31.60
2023-01-22T16:26:14.702Z,31.67
2023-01-22T16:28:43.202Z,27.97
2023-01-22T16:31:12.521Z,27.17
2023-01-22T16:33:42.989Z,25.27
2023-01-22T16:36:14.073Z,27.57
2023-01-22T16:38:42.954Z,29.63
2023-01-22T16:41:24.748Z,25.90
2023-01-22T16:43:54.979Z,31.73
2023-01-22T16:46:24.749Z,28.97
2023-01-22T16:48:56.951Z,32.40
2023-01-22T16:51:27.811Z,28.63
2023-01-22T16:53:56.605Z,28.87
2023-01-22T16:56:25.068Z,28.73
2023-01-22T16:58:53.463Z,30.50
2023-01-22T17:01:22.775Z,31.23
2023-01-22T17:03:51.316Z,31.23
2023-01-22T17:06:24.337Z,30.90
2023-01-22T17:08:54.374Z,35.13
2023-01-22T17:11:23.058Z,33.60
2023-01-22T17:13:51.716Z,32.60
2023-01-22T17:16:20.718Z,31.90
2023-01-22T17:18:49.173Z,30.60
2023-01-22T17:21:19.198Z,28.53
2023-01-22T17:23:47.740Z,31.77
2023-01-22T17:26:18.064Z,33.53
2023-01-22T17:28:47.439Z,29.63
2023-01-22T17:31:17.081Z,36.97
2023-01-22T17:33:46.332Z,30.70
2023-01-22T17:36:16.013Z,28.87
2023-01-22T17:38:44.515Z,30.00
2023-01-22T17:41:14.946Z,31.63
2023-01-22T17:43:45.117Z,29.70
2023-01-22T17:46:14.410Z,32.63
2023-01-22T17:48:42.851Z,28.23
2023-01-22T17:51:12.686Z,28.23
2023-01-22T17:53:41.835Z,28.63
2023-01-22T17:56:11.383Z,31.70
2023-01-22T17:58:42.279Z,34.70
2023-01-22T18:01:12.742Z,26.10
2023-01-22T18:03:41.189Z,32.50
2023-01-22T18:06:09.751Z,33.60
2023-01-22T18:08:39.530Z,30.13
2023-01-22T18:11:08.735Z,29.80
2023-01-22T18:13:38.018Z,35.00
2023-01-22T18:16:06.920Z,34.10
2023-01-22T18:18:36.982Z,34.67
2023-01-22T18:21:05.820Z,35.10
2023-01-22T18:23:34.435Z,35.90
2023-01-22T18:26:05.364Z,34.43
2023-01-22T18:28:34.135Z,34.73
2023-01-22T18:31:05.796Z,32.97
2023-01-22T18:33:34.789Z,33.37
2023-01-22T18:36:05.608Z,38.00
2023-01-22T18:38:36.477Z,35.87
2023-01-22T18:41:08.250Z,36.03
2023-01-22T18:43:36.706Z,31.07
2023-01-22T18:46:05.790Z,30.53
2023-01-22T18:48:34.311Z,33.23
2023-01-22T18:51:04.159Z,33.20
2023-01-22T18:53:32.775Z,31.17
2023-01-22T18:56:01.661Z,33.67
2023-01-22T18:58:32.345Z,33.60
2023-01-22T19:01:01.621Z,30.23
2023-01-22T19:03:30.775Z,36.23
2023-01-22T19:05:59.665Z,36.67
2023-01-22T19:08:29.723Z,33.50
2023-01-22T19:11:03.927Z,31.03
2023-01-22T19:13:35.184Z,34.63
2023-01-22T19:16:04.707Z,34.40
2023-01-22T19:18:33.557Z,36.87
2023-01-22T19:21:13.337Z,36.33
2023-01-22T19:23:45.484Z,33.23
2023-01-22T19:26:15.143Z,35.40
2023-01-22T19:28:43.565Z,37.40
2023-01-22T19:31:18.740Z,37.70
2023-01-22T19:33:47.298Z,34.53
2023-01-22T19:36:15.814Z,39.73
2023-01-22T19:38:45.679Z,38.87
2023-01-22T19:41:14.119Z,38.23
2023-01-22T19:43:43.020Z,39.97
2023-01-22T19:46:13.648Z,40.10
2023-01-22T19:48:42.694Z,42.17
2023-01-22T19:51:11.966Z,47.10
2023-01-22T19:53:40.607Z,43.67
2023-01-22T19:56:16.995Z,39.30
2023-01-22T19:58:45.774Z,42.43
2023-01-22T20:01:14.712Z,39.63
2023-01-22T20:03:43.597Z,38.13
2023-01-22T20:06:13.254Z,37.03
2023-01-22T20:08:41.676Z,43.83
2023-01-22T20:11:11.193Z,38.33
2023-01-22T20:13:41.702Z,37.60
2023-01-22T20:16:17.738Z,38.50
2023-01-22T20:18:46.193Z,35.17
2023-01-22T20:21:15.528Z,42.97
2023-01-22T20:23:43.951Z,42.27
2023-01-22T20:26:12.723Z,37.77
2023-01-22T20:28:42.629Z,44.63
2023-01-22T20:31:13.625Z,43.80
2023-01-22T20:33:42.161Z,39.77
2023-01-22T20:36:12.049Z,40.07
2023-01-22T20:38:40.448Z,42.97
2023-01-22T20:41:09.860Z,38.60
2023-01-22T20:43:39.168Z,42.23
2023-01-22T20:46:10.173Z,40.93
2023-01-22T20:48:38.961Z,41.87
2023-01-22T20:51:14.418Z,40.47
2023-01-22T20:53:43.727Z,46.20
2023-01-22T20:56:13.947Z,39.93
2023-01-22T20:58:42.396Z,45.77
2023-01-22T21:01:14.564Z,43.50
2023-01-22T21:03:43.107Z,40.60
2023-01-22T21:06:14.007Z,44.40
2023-01-22T21:08:43.370Z,48.30
2023-01-22T21:11:12.754Z,42.63
2023-01-22T21:13:41.500Z,48.03
2023-01-22T21:16:10.912Z,40.57
2023-01-22T21:18:43.802Z,47.20
2023-01-22T21:21:12.689Z,44.50
2023-01-22T21:23:41.205Z,49.57
2023-01-22T21:26:15.571Z,47.70
2023-01-22T21:28:44.028Z,51.27
2023-01-22T21:31:14.036Z,52.87
2023-01-22T21:33:44.307Z,53.20
2023-01-22T21:36:13.651Z,50.60
2023-01-22T21:38:42.137Z,49.20
2023-01-22T21:41:12.285Z,44.53
2023-01-22T21:43:59.023Z,52.77
2023-01-22T21:46:29.476Z,54.03
2023-01-22T21:49:01.260Z,47.90
2023-01-22T21:51:30.237Z,54.47
2023-01-22T21:53:59.752Z,54.57
2023-01-22T21:56:28.222Z,60.13
2023-01-22T21:58:57.653Z,51.00
2023-01-22T22:01:26.118Z,52.27
2023-01-22T22:03:54.610Z,56.67
2023-01-22T22:06:24.416Z,50.43
2023-01-22T22:08:52.861Z,47.80
2023-01-22T22:11:21.561Z,51.60
2023-01-22T22:13:49.997Z,50.30
2023-01-22T22:16:18.536Z,49.33
2023-01-22T22:18:47.033Z,44.87
2023-01-22T22:21:15.555Z,47.57
2023-01-22T22:23:45.474Z,40.97
2023-01-22T22:26:13.897Z,43.53
2023-01-22T22:28:42.371Z,45.97
2023-01-22T22:31:11.864Z,50.23
2023-01-22T22:33:40.737Z,43.27
2023-01-22T22:36:09.917Z,43.80
2023-01-22T22:38:38.661Z,44.43
2023-01-22T22:41:09.380Z,39.60
2023-01-22T22:43:38.747Z,40.60
2023-01-22T22:46:08.985Z,39.65
2023-01-22T22:48:37.444Z,42.90
2023-01-22T22:51:11.014Z,37.60
2023-01-22T22:53:39.577Z,38.30
2023-01-22T22:56:10.385Z,40.70
2023-01-22T22:58:38.979Z,37.70
2023-01-22T23:01:08.062Z,36.33
2023-01-22T23:03:37.513Z,40.73
2023-01-22T23:06:08.319Z,37.87
2023-01-22T23:08:37.532Z,39.20
2023-01-22T23:11:06.501Z,33.17
2023-01-22T23:13:36.511Z,36.17
2023-01-22T23:16:05.370Z,40.53
2023-01-22T23:18:34.649Z,37.70
2023-01-22T23:21:04.846Z,35.00
2023-01-22T23:23:33.385Z,35.67
2023-01-22T23:26:01.872Z,41.45
2023-01-22T23:28:30.427Z,37.43
2023-01-22T23:31:05.315Z,37.87
2023-01-22T23:33:33.881Z,34.15
2023-01-22T23:36:02.433Z,37.57
2023-01-22T23:38:30.872Z,38.83
2023-01-22T23:40:59.520Z,37.80
2023-01-22T23:43:28.014Z,40.08
2023-01-22T23:45:56.441Z,38.63
2023-01-22T23:48:26.307Z,40.87
2023-01-22T23:50:55.055Z,41.27
2023-01-22T23:53:24.109Z,36.37
2023-01-22T23:55:52.514Z,35.73
2023-01-22T23:58:21.199Z,34.13
